LEGR

Granada

Airport
ICAO code
LEGR
Summary
ICAO Region
EUR
ICAO Territory
Location

Granada, Spain,

Coordinates
37° 11' 18" N , 3° 46' 36" W
KCC
Csa
Airport WX
Fog
Metar
Observation
LEGR 171930Z 33003KT 300V360 CAVOK 25/05 Q1013
Station
Granada / Aeropuerto
Date/Time
2022-08-17 19:30:00
Wind direction
330°
Wind speed
03 kts
Lowest cloud amount
clouds and visibility OK
Temperature
25°C
Dew point
5°C
Humidity
27%
QNH
1013 hPa
Weather condition
n/a

Description

International airport serving Spanish city of Granada.

Climatology

Dry-summer subtropical ”Mediterranean" climate (Köppen climate classification Csa) - characterized by hot, dry summers and mild winters. During the summer, subtropical high pressure cells dominate, making rainfall unlikely except for the occasional thunderstorm. In the winter, periodic storms bring rain (snow at higher elevations).

Runways

Designator Length Width Surface Rops
9/27 2900 45 ASP Yes/Yes

Airport map

Aerial View

SKYbrary Partners:

Safety knowledge contributed by: